createdAt,value
2019-06-10T00:07:14.789Z,100
2019-06-10T00:12:20.817Z,100
2019-06-10T00:22:23.218Z,100
2019-06-10T00:27:28.095Z,100
2019-06-10T00:32:31.973Z,100
2019-06-10T00:37:32.605Z,100
2019-06-10T00:42:36.017Z,100
2019-06-10T00:52:45.350Z,100
2019-06-10T01:02:46.386Z,100
2019-06-10T01:12:51.289Z,100
2019-06-10T01:28:01.298Z,100
2019-06-10T01:43:13.852Z,100
2019-06-10T01:48:11.990Z,100
2019-06-10T01:53:15.636Z,100
2019-06-10T01:58:14.248Z,100
2019-06-10T02:03:17.006Z,100
2019-06-10T02:18:22.491Z,100
2019-06-10T02:28:27.350Z,100
2019-06-10T02:33:34.840Z,100
2019-06-10T02:48:30.756Z,100
2019-06-10T02:53:31.853Z,100
2019-06-10T02:58:33.992Z,100
2019-06-10T03:08:32.574Z,100
2019-06-10T03:13:28.109Z,100
2019-06-10T03:18:28.151Z,100
2019-06-10T03:23:27.931Z,95.4
2019-06-10T03:28:27.723Z,89.1
2019-06-10T03:33:31.321Z,84.6
2019-06-10T03:38:28.450Z,79.4
2019-06-10T03:48:35.743Z,72.5
2019-06-10T04:03:44.730Z,84.6
2019-06-10T04:08:43.463Z,88.4
2019-06-10T04:13:44.246Z,89.9
2019-06-10T04:18:44.968Z,91.3
2019-06-10T04:23:47.826Z,90.9
2019-06-10T04:28:44.680Z,91.9
2019-06-10T04:33:48.408Z,87.6
2019-06-10T04:38:48.672Z,58.4
2019-06-10T04:43:47.969Z,55
2019-06-10T04:48:53.130Z,54.9
2019-06-10T05:04:03.106Z,52.1
2019-06-10T05:09:00.866Z,48.3
2019-06-10T05:14:04.626Z,49.1
2019-06-10T05:19:05.055Z,48.7
2019-06-10T05:24:12.381Z,47.2
2019-06-10T05:29:12.338Z,47.5
2019-06-10T05:34:13.016Z,47.2
2019-06-10T05:39:12.129Z,47.3
2019-06-10T05:44:13.380Z,43.9
2019-06-10T05:49:12.479Z,46.2
2019-06-10T05:59:15.821Z,42.7
2019-06-10T06:04:20.040Z,42.5
2019-06-10T06:14:27.489Z,42.4
2019-06-10T06:24:27.707Z,39.9
2019-06-10T06:29:27.465Z,41
2019-06-10T06:34:28.302Z,43.3
2019-06-10T06:39:27.008Z,40.7
2019-06-10T06:44:32.436Z,40.8
2019-06-10T06:49:32.772Z,38.3
2019-06-10T06:54:34.839Z,36.1
2019-06-10T06:59:34.191Z,40.6
2019-06-10T07:04:38.986Z,40.4
2019-06-10T07:14:38.904Z,36.4
2019-06-10T07:19:39.637Z,37.4
2019-06-10T07:24:40.417Z,36.7
2019-06-10T07:29:39.123Z,35.9
2019-06-10T07:39:36.789Z,32.4
2019-06-10T07:44:37.233Z,40.5
2019-06-10T07:49:37.226Z,43.2
2019-06-10T07:59:33.767Z,47.2
2019-06-10T08:04:33.517Z,45.8
2019-06-10T08:09:35.744Z,44.6
2019-06-10T08:14:37.395Z,44.3
2019-06-10T08:19:39.646Z,48.2
2019-06-10T08:24:35.294Z,47.2
2019-06-10T08:39:36.190Z,49.9
2019-06-10T08:44:43.095Z,48.9
2019-06-10T08:54:49.619Z,52.2
2019-06-10T08:59:48.214Z,53.2
2019-06-10T09:04:48.536Z,52.9
2019-06-10T09:14:50.564Z,56.3
2019-06-10T09:19:51.215Z,51.4
2019-06-10T09:24:52.913Z,49.5
2019-06-10T09:29:55.338Z,51.7
2019-06-10T09:34:57.289Z,43.8
2019-06-10T09:50:03.028Z,48.4
2019-06-10T09:55:03.305Z,46.2
2019-06-10T10:10:08.211Z,50
2019-06-10T10:15:22.488Z,50
2019-06-10T10:20:07.244Z,48.3
2019-06-10T10:25:09.850Z,53.7
2019-06-10T10:30:10.686Z,37.8
2019-06-10T10:45:14.013Z,43.6
2019-06-10T10:50:17.846Z,52.2
2019-06-10T10:55:15.472Z,56.1
2019-06-10T11:05:14.157Z,78.8
2019-06-10T11:10:12.763Z,79.2
2019-06-10T11:15:15.494Z,75.1
2019-06-10T11:20:14.366Z,63.5
2019-06-10T11:25:17.665Z,66.8
2019-06-10T11:35:19.973Z,77.2
2019-06-10T11:40:23.649Z,77
2019-06-10T11:45:22.393Z,81.7
2019-06-10T11:50:24.735Z,60.5
2019-06-10T11:55:26.114Z,59
2019-06-10T12:05:34.719Z,53.7
2019-06-10T12:10:39.267Z,52.8
2019-06-10T12:16:13.708Z,60.8
2019-06-10T12:20:42.648Z,63.1
2019-06-10T12:25:39.635Z,66.9
2019-06-10T12:30:38.336Z,63.5
2019-06-10T12:40:44.750Z,49.2
2019-06-10T12:55:55.777Z,42.5
2019-06-10T13:00:59.439Z,47.1
2019-06-10T13:05:59.553Z,39.9
2019-06-10T13:11:02.205Z,48.2
2019-06-10T13:16:06.392Z,55
2019-06-10T13:21:09.894Z,48.3
2019-06-10T13:46:11.270Z,53.8
2019-06-10T13:51:13.006Z,54.3
2019-06-10T13:56:31.797Z,40.5
2019-06-10T14:06:32.563Z,48.9
2019-06-10T14:11:15.724Z,39.8
2019-06-10T14:16:15.560Z,39.3
2019-06-10T14:21:18.579Z,35.6
2019-06-10T14:31:39.002Z,43.4
2019-06-10T14:36:22.204Z,52.4
2019-06-10T14:46:25.953Z,50.1
2019-06-10T14:51:28.275Z,47.9
2019-06-10T14:56:26.726Z,54
2019-06-10T15:01:32.042Z,57.6
2019-06-10T15:06:28.979Z,62.1
2019-06-10T15:11:32.122Z,59.1
2019-06-10T15:26:29.439Z,61.8
2019-06-10T15:31:29.276Z,60.6
2019-06-10T15:41:34.262Z,60.3
2019-06-10T15:46:37.157Z,58.9
2019-06-10T15:51:35.948Z,59.5
2019-06-10T16:01:45.943Z,67.2
2019-06-10T16:06:45.797Z,72
2019-06-10T16:11:45.563Z,70.9
2019-06-10T16:27:00.419Z,71.8
2019-06-10T16:32:02.964Z,69.8
2019-06-10T16:52:12.104Z,74.6
2019-06-10T16:57:09.185Z,75.9
2019-06-10T17:07:15.171Z,79.9
2019-06-10T17:12:14.614Z,82.1
2019-06-10T17:17:23.480Z,83.8
2019-06-10T17:32:22.564Z,87.9
2019-06-10T17:42:24.415Z,91
2019-06-10T17:52:24.538Z,93
2019-06-10T17:57:28.670Z,92.7
2019-06-10T18:07:34.430Z,94.1
2019-06-10T18:12:35.915Z,94.6
2019-06-10T18:17:39.835Z,95.6
2019-06-10T18:22:41.974Z,95.4
2019-06-10T18:27:43.179Z,96.8
2019-06-10T18:32:39.430Z,97.8
2019-06-10T18:47:42.252Z,99.4
2019-06-10T18:52:43.128Z,99.8
2019-06-10T18:57:44.001Z,100
2019-06-10T19:02:47.374Z,100
2019-06-10T19:33:02.575Z,100
2019-06-10T19:38:03.216Z,100
2019-06-10T19:53:10.159Z,100
2019-06-10T19:58:10.486Z,100
2019-06-10T20:03:09.114Z,100
2019-06-10T20:13:11.777Z,100
2019-06-10T20:18:12.387Z,100
2019-06-10T20:23:12.889Z,100
2019-06-10T20:48:29.048Z,100
2019-06-10T20:58:29.637Z,100
2019-06-10T21:08:33.293Z,100
2019-06-10T21:13:32.827Z,99.8
2019-06-10T21:18:32.705Z,98.6
2019-06-10T21:23:31.858Z,99.6
2019-06-10T21:28:36.305Z,99.1
2019-06-10T21:33:45.819Z,98.4
2019-06-10T21:38:44.278Z,95.9
2019-06-10T21:43:48.064Z,97.2
2019-06-10T21:48:44.405Z,96.3
2019-06-10T22:04:00.626Z,97.5
2019-06-10T22:24:16.405Z,99.9
2019-06-10T22:29:16.207Z,100
2019-06-10T22:34:15.690Z,100
2019-06-10T22:44:20.421Z,100
2019-06-10T22:49:19.982Z,100
2019-06-10T22:54:23.512Z,100
2019-06-10T22:59:23.579Z,100
2019-06-10T23:04:27.044Z,100
2019-06-10T23:09:24.250Z,100
2019-06-10T23:14:24.029Z,100
2019-06-10T23:19:23.450Z,100
2019-06-10T23:29:32.204Z,100
2019-06-10T23:34:33.413Z,100
2019-06-10T23:39:30.242Z,100
2019-06-10T23:44:37.425Z,100
2019-06-10T23:49:42.015Z,100
2019-06-10T23:54:47.303Z,100
2019-06-10T23:59:43.079Z,100
